Time;durP1;ratioP1;P1;durP2;ratioP2;P2;SDS_P1;SDS_P2;PMS_P1;PMS_P2;Temp;Humidity;BMP_temperature;BMP_pressure;BME280_temperature;BME280_humidity;BME280_pressure;Samples;Min_cycle;Max_cycle;Signal;HPM_P1;HPM_P2
2023/07/12 00:02:05;;;;;;;5.75;3.58;;;;;;;28.35;33.23;100442.38;4985858;28;101545;-64
2023/07/12 00:04:33;;;;;;;6.05;4.03;;;;;;;28.26;33.65;100442.56;4983457;28;99295;-64
2023/07/12 00:06:59;;;;;;;5.82;3.47;;;;;;;28.51;33.33;100442.28;4988176;28;96886;-65
2023/07/12 00:09:29;;;;;;;8.50;3.83;;;;;;;28.41;33.53;100440.81;4989374;28;97691;-64
2023/07/12 00:11:55;;;;;;;4.88;3.53;;;;;;;28.42;33.58;100451.50;4986285;28;99057;-65
2023/07/12 00:14:22;;;;;;;4.93;3.75;;;;;;;28.34;33.79;100453.41;4989039;28;99115;-65
2023/07/12 00:16:50;;;;;;;5.78;3.78;;;;;;;28.37;33.76;100445.75;4988739;28;96805;-64
2023/07/12 00:19:17;;;;;;;4.47;3.25;;;;;;;28.24;34.13;100448.16;4987821;28;96827;-65
2023/07/12 00:21:47;;;;;;;4.18;3.33;;;;;;;28.22;34.15;100449.38;4986025;28;100307;-64
2023/07/12 00:24:13;;;;;;;3.83;3.40;;;;;;;28.27;33.93;100445.13;4988419;28;98912;-64
2023/07/12 00:26:41;;;;;;;6.88;3.63;;;;;;;28.23;34.05;100430.16;4985004;28;96844;-64
2023/07/12 00:29:09;;;;;;;7.40;3.53;;;;;;;28.17;34.49;100419.16;4989564;28;96811;-64
2023/07/12 00:31:36;;;;;;;4.50;3.35;;;;;;;28.06;34.40;100428.50;4987232;28;98124;-64
2023/07/12 00:34:03;;;;;;;5.40;3.53;;;;;;;27.99;34.65;100417.50;4989129;28;98990;-67
2023/07/12 00:36:31;;;;;;;8.45;3.63;;;;;;;28.01;34.64;100420.91;4981907;28;98228;-64
2023/07/12 00:38:59;;;;;;;5.13;3.25;;;;;;;28.12;34.55;100423.22;4979790;28;97264;-64
2023/07/12 00:41:43;;;;;;;6.05;3.67;;;;;;;28.13;34.70;100413.22;4988138;28;101755;-63
2023/07/12 00:44:14;;;;;;;6.90;3.25;;;;;;;28.14;34.60;100399.50;4977797;28;99685;-64
2023/07/12 00:46:45;;;;;;;6.25;3.55;;;;;;;28.21;34.49;100399.66;4988593;28;96924;-65
2023/07/12 00:49:11;;;;;;;5.88;3.50;;;;;;;28.21;34.48;100374.34;4988429;28;97236;-64
2023/07/12 00:51:49;;;;;;;5.47;3.42;;;;;;;28.14;34.56;100375.06;4983981;28;99084;-65
2023/07/12 00:54:19;;;;;;;7.57;3.38;;;;;;;28.23;34.50;100364.97;4982601;28;98898;-64
2023/07/12 00:56:45;;;;;;;3.85;3.40;;;;;;;28.19;34.82;100362.78;4988241;28;96731;-64
2023/07/12 00:59:17;;;;;;;6.28;3.80;;;;;;;28.04;34.94;100352.63;4975168;28;97004;-70
2023/07/12 01:01:45;;;;;;;7.07;3.30;;;;;;;28.06;34.76;100347.03;4981966;28;99043;-70
2023/07/12 01:04:15;;;;;;;6.15;3.58;;;;;;;28.02;34.94;100334.84;4987204;28;98901;-70
2023/07/12 01:06:41;;;;;;;5.93;3.45;;;;;;;28.08;34.90;100324.13;4984669;28;96863;-70
2023/07/12 01:09:12;;;;;;;6.93;3.90;;;;;;;28.05;34.89;100324.47;4988283;28;97045;-70
2023/07/12 01:11:41;;;;;;;6.25;3.40;;;;;;;27.98;34.96;100318.03;4986769;28;98982;-70
2023/07/12 01:14:11;;;;;;;4.45;3.55;;;;;;;27.95;35.24;100309.41;4984781;28;99432;-69
2023/07/12 01:16:40;;;;;;;6.25;3.95;;;;;;;28.01;35.21;100306.84;4980785;28;96836;-69
2023/07/12 01:19:07;;;;;;;5.93;3.90;;;;;;;27.97;35.34;100305.47;4984599;28;96898;-68
2023/07/12 01:21:43;;;;;;;6.53;3.42;;;;;;;27.87;35.58;100290.44;4985916;28;99070;-69
2023/07/12 01:24:09;;;;;;;;;;;;;;;27.83;35.78;100292.66;4984252;28;98869;-69
2023/07/12 01:26:38;;;;;;;7.55;3.75;;;;;;;27.74;35.86;100291.00;4987388;28;97307;-69
2023/07/12 01:29:07;;;;;;;8.07;3.78;;;;;;;27.74;35.89;100288.28;4987724;28;96997;-69
2023/07/12 01:31:35;;;;;;;8.27;4.20;;;;;;;27.64;36.34;100282.22;4984656;28;99632;-69
2023/07/12 01:34:02;;;;;;;7.80;4.43;;;;;;;27.64;36.34;100277.63;4987968;28;98762;-70
2023/07/12 01:36:29;;;;;;;5.60;3.90;;;;;;;27.60;36.36;100272.75;4984706;28;97325;-70
2023/07/12 01:38:59;;;;;;;5.15;3.65;;;;;;;27.55;36.55;100261.56;4987235;28;96797;-71
2023/07/12 01:41:27;;;;;;;5.88;3.60;;;;;;;27.76;36.29;100265.34;4985269;28;98614;-70
2023/07/12 01:43:54;;;;;;;6.57;3.95;;;;;;;27.72;36.19;100249.63;4984484;28;102920;-70
2023/07/12 01:46:24;;;;;;;8.10;4.38;;;;;;;27.68;36.41;100251.00;4984200;28;96966;-70
2023/07/12 01:48:50;;;;;;;7.10;4.15;;;;;;;27.66;36.44;100242.19;4988608;28;96829;-69
2023/07/12 01:51:19;;;;;;;6.32;3.75;;;;;;;27.71;36.50;100242.50;4985439;28;99047;-70
2023/07/12 01:53:46;;;;;;;5.57;4.03;;;;;;;27.88;36.13;100241.41;4985680;28;98512;-69
2023/07/12 01:56:15;;;;;;;8.25;4.10;;;;;;;27.76;36.19;100237.41;4981473;28;96710;-69
2023/07/12 01:58:42;;;;;;;6.65;3.67;;;;;;;27.73;36.44;100235.88;4988832;28;96875;-69
2023/07/12 02:01:09;;;;;;;9.57;4.18;;;;;;;27.73;36.51;100233.16;4981564;28;99826;-70
2023/07/12 02:03:36;;;;;;;8.52;4.13;;;;;;;27.76;36.49;100221.94;4984724;28;99085;-69
2023/07/12 02:06:03;;;;;;;6.40;4.43;;;;;;;27.76;36.48;100213.78;4988421;28;97185;-68
2023/07/12 02:08:29;;;;;;;5.70;3.75;;;;;;;27.92;36.13;100199.28;4988315;28;96805;-69
2023/07/12 02:10:56;;;;;;;9.23;4.22;;;;;;;27.87;36.14;100192.69;4983141;28;99264;-70
2023/07/12 02:13:24;;;;;;;4.63;3.50;;;;;;;27.84;36.23;100184.91;4990324;28;98923;-70
2023/07/12 02:15:50;;;;;;;4.85;3.90;;;;;;;27.77;36.39;100173.91;4986083;28;98660;-70
2023/07/12 02:18:18;;;;;;;6.80;4.22;;;;;;;27.60;36.64;100173.19;4991184;28;97610;-70
2023/07/12 02:20:45;;;;;;;7.10;4.25;;;;;;;27.47;37.16;100172.03;4987178;28;98963;-70
2023/07/12 02:23:11;;;;;;;6.97;4.20;;;;;;;27.60;36.86;100166.91;4991109;28;98034;-70
2023/07/12 02:25:38;;;;;;;10.68;4.03;;;;;;;27.45;37.35;100171.34;4991186;28;96852;-70
2023/07/12 02:28:05;;;;;;;4.63;3.97;;;;;;;27.40;37.58;100163.75;4980980;28;100076;-70
2023/07/12 02:30:34;;;;;;;8.77;3.85;;;;;;;27.61;37.01;100164.00;4981307;28;97238;-70
2023/07/12 02:33:01;;;;;;;6.15;3.92;;;;;;;27.39;37.58;100175.63;4988227;28;98858;-70
2023/07/12 02:35:29;;;;;;;7.75;4.00;;;;;;;27.47;37.40;100162.00;4991453;28;96819;-70
2023/07/12 02:37:56;;;;;;;4.53;3.85;;;;;;;27.32;37.36;100164.63;4991227;28;97196;-70
2023/07/12 02:40:24;;;;;;;6.70;4.00;;;;;;;27.41;37.59;100162.72;4989314;28;102230;-70
2023/07/12 02:42:50;;;;;;;5.28;3.97;;;;;;;27.50;37.47;100155.41;4988635;28;101924;-68
2023/07/12 02:45:17;;;;;;;7.88;4.20;;;;;;;27.51;37.63;100157.91;4987998;28;96753;-69
2023/07/12 02:47:44;;;;;;;7.93;4.60;;;;;;;27.63;37.57;100145.69;4990967;28;96908;-69
2023/07/12 02:50:11;;;;;;;8.13;4.45;;;;;;;27.59;37.49;100143.50;4989847;28;99196;-69
2023/07/12 02:52:37;;;;;;;6.63;4.28;;;;;;;27.65;37.41;100137.34;4989619;28;99010;-69
2023/07/12 02:55:05;;;;;;;6.20;4.47;;;;;;;27.41;38.00;100140.19;4988965;28;96916;-69
2023/07/12 02:57:31;;;;;;;6.70;4.85;;;;;;;27.63;37.64;100139.41;4984026;28;96902;-69
2023/07/12 02:59:57;;;;;;;6.65;4.78;;;;;;;27.56;37.69;100143.88;4990179;28;98895;-68
2023/07/12 03:02:24;;;;;;;4.50;4.10;;;;;;;27.63;37.70;100153.84;4988259;28;99194;-69
2023/07/12 03:04:52;;;;;;;6.70;4.00;;;;;;;27.62;37.94;100167.56;4989046;28;97477;-70
2023/07/12 03:07:19;;;;;;;6.50;4.47;;;;;;;27.64;37.83;100173.66;4990628;28;97325;-69
2023/07/12 03:09:45;;;;;;;7.80;5.10;;;;;;;27.63;37.68;100172.84;4991630;28;99440;-70
2023/07/12 03:12:12;;;;;;;6.38;4.50;;;;;;;27.63;37.89;100161.13;4989913;28;99086;-69
2023/07/12 03:14:38;;;;;;;7.95;4.65;;;;;;;27.31;38.60;100167.50;4989213;28;97601;-68
2023/07/12 03:17:05;;;;;;;7.90;5.22;;;;;;;27.44;38.78;100166.97;4987166;28;97106;-70
2023/07/12 03:19:32;;;;;;;11.65;5.05;;;;;;;27.60;38.19;100158.75;4989801;28;98999;-69
2023/07/12 03:22:00;;;;;;;10.38;5.57;;;;;;;27.72;38.03;100168.19;4990163;28;97679;-69
2023/07/12 03:24:26;;;;;;;7.55;5.10;;;;;;;27.54;38.38;100163.03;4988086;28;97268;-70
2023/07/12 03:26:52;;;;;;;8.68;5.30;;;;;;;27.73;38.12;100168.00;4990218;28;96838;-69
2023/07/12 03:29:19;;;;;;;9.90;5.40;;;;;;;27.76;38.25;100172.25;4988508;28;99332;-69
2023/07/12 03:31:45;;;;;;;8.27;5.35;;;;;;;27.74;38.03;100161.56;4989770;28;99428;-69
2023/07/12 03:34:12;;;;;;;8.57;5.40;;;;;;;27.75;38.34;100165.13;4987298;28;97055;-70
2023/07/12 03:36:40;;;;;;;8.15;5.55;;;;;;;27.63;38.39;100153.84;4990633;28;96790;-69
2023/07/12 03:39:08;;;;;;;6.45;5.35;;;;;;;27.71;38.43;100156.47;4986013;28;98419;-69
2023/07/12 03:41:35;;;;;;;8.73;6.25;;;;;;;27.83;38.17;100150.66;4986288;28;101453;-69
2023/07/12 03:44:01;;;;;;;7.25;5.63;;;;;;;27.82;38.25;100155.25;4987785;28;96910;-70
2023/07/12 03:46:27;;;;;;;9.10;5.70;;;;;;;27.58;38.69;100150.78;4982255;28;97764;-70
2023/07/12 03:48:54;;;;;;;7.28;5.30;;;;;;;27.74;38.46;100149.84;4986986;28;99374;-69
2023/07/12 03:51:22;;;;;;;8.85;5.72;;;;;;;27.68;38.84;100147.88;4986149;28;99332;-69
2023/07/12 03:53:49;;;;;;;8.50;6.05;;;;;;;27.72;38.69;100149.19;4983924;28;97448;-69
2023/07/12 03:56:16;;;;;;;7.75;5.82;;;;;;;27.74;38.67;100149.84;4990651;28;97213;-70
2023/07/12 03:58:43;;;;;;;6.38;5.32;;;;;;;27.83;38.60;100150.66;4990055;28;99260;-73
2023/07/12 04:01:12;;;;;;;7.03;5.72;;;;;;;28.01;38.34;100146.63;4989609;28;99118;-69
2023/07/12 04:03:39;;;;;;;9.27;5.95;;;;;;;28.09;38.22;100143.00;4989470;28;97112;-70
2023/07/12 04:06:09;;;;;;;7.30;5.40;;;;;;;28.08;38.11;100157.59;4988234;28;96794;-70
2023/07/12 04:08:36;;;;;;;9.88;5.60;;;;;;;28.13;38.03;100147.03;4989594;28;99249;-70
2023/07/12 04:11:03;;;;;;;10.05;5.80;;;;;;;28.21;37.97;100141.56;4986825;28;99251;-69
2023/07/12 04:13:31;;;;;;;7.60;5.68;;;;;;;28.11;38.17;100136.34;4987598;28;96823;-70
2023/07/12 04:16:00;;;;;;;7.68;5.65;;;;;;;28.08;38.29;100138.59;4988508;28;98166;-70
2023/07/12 04:18:28;;;;;;;7.53;5.85;;;;;;;28.13;38.43;100142.44;4985948;28;99123;-69
2023/07/12 04:20:58;;;;;;;9.02;5.85;;;;;;;28.28;38.04;100128.09;4983906;28;99366;-69
2023/07/12 04:23:25;;;;;;;12.02;6.53;;;;;;;28.46;37.85;100140.31;4985254;28;98033;-69
2023/07/12 04:25:58;;;;;;;10.02;5.53;;;;;;;28.41;37.82;100134.59;4984181;28;97632;-69
2023/07/12 04:28:24;;;;;;;8.10;5.97;;;;;;;28.60;37.75;100126.94;4990089;28;101742;-69
2023/07/12 04:30:52;;;;;;;8.00;6.00;;;;;;;28.53;37.94;100124.13;4987909;28;98787;-70
2023/07/12 04:33:19;;;;;;;9.70;5.82;;;;;;;28.40;38.33;100129.34;4986545;28;96794;-69
2023/07/12 04:35:45;;;;;;;11.45;6.32;;;;;;;28.80;37.72;100119.97;4986838;28;99326;-69
2023/07/12 04:38:11;;;;;;;9.07;6.20;;;;;;;28.42;37.95;100124.59;4989190;28;101998;-68
2023/07/12 04:40:38;;;;;;;9.65;6.47;;;;;;;28.51;38.11;100118.03;4988864;28;98497;-70
2023/07/12 04:43:04;;;;;;;12.07;7.05;;;;;;;28.74;38.00;100124.28;4987884;28;97109;-69
2023/07/12 04:45:31;;;;;;;9.27;6.90;;;;;;;28.76;37.75;100146.69;4982125;28;97397;-69
2023/07/12 04:47:58;;;;;;;10.13;6.63;;;;;;;28.68;37.96;100143.19;4984212;28;99255;-70
2023/07/12 04:50:25;;;;;;;10.75;6.18;;;;;;;28.54;39.05;100150.28;4987263;28;99061;-69
2023/07/12 04:52:51;;;;;;;11.38;6.68;;;;;;;28.35;39.13;100157.09;4981744;28;97276;-69
2023/07/12 04:55:26;;;;;;;11.75;7.28;;;;;;;28.55;39.05;100160.13;4981798;28;96965;-69
2023/07/12 04:57:54;;;;;;;9.90;6.88;;;;;;;28.79;38.39;100164.50;4987972;28;100049;-70
2023/07/12 05:00:23;;;;;;;10.73;6.53;;;;;;;28.76;38.18;100176.59;4989971;28;100852;-69
2023/07/12 05:02:50;;;;;;;9.52;7.13;;;;;;;28.87;38.24;100173.44;4979789;28;98441;-70
2023/07/12 05:05:17;;;;;;;11.60;7.03;;;;;;;28.99;38.06;100181.97;4979617;28;96947;-69
2023/07/12 05:07:44;;;;;;;13.98;7.97;;;;;;;28.90;38.45;100189.34;4987721;28;99248;-69
2023/07/12 05:10:11;;;;;;;11.38;7.13;;;;;;;29.02;38.38;100183.44;4987891;28;98805;-68
2023/07/12 05:12:39;;;;;;;15.85;7.63;;;;;;;29.10;38.17;100178.78;4989251;28;96710;-69
2023/07/12 05:15:07;;;;;;;9.02;7.07;;;;;;;29.01;38.80;100184.50;4976263;28;96809;-69
2023/07/12 05:17:34;;;;;;;12.30;7.47;;;;;;;29.15;38.64;100180.91;4968678;28;98950;-69
2023/07/12 05:20:00;;;;;;;10.45;7.38;;;;;;;29.10;38.40;100177.91;4983225;28;98979;-68
2023/07/12 05:22:28;;;;;;;13.57;7.47;;;;;;;29.19;38.52;100182.25;4982605;28;96911;-69
2023/07/12 05:24:58;;;;;;;15.05;7.63;;;;;;;29.31;38.31;100186.19;4984036;28;97420;-70
2023/07/12 05:27:25;;;;;;;11.40;7.43;;;;;;;29.09;38.99;100181.66;4981836;28;98232;-69
2023/07/12 05:29:51;;;;;;;13.40;8.40;;;;;;;29.13;38.90;100186.56;4987016;28;99178;-69
2023/07/12 05:32:19;;;;;;;14.57;8.07;;;;;;;29.27;38.63;100182.16;4984271;28;98873;-69
2023/07/12 05:34:45;;;;;;;15.52;8.75;;;;;;;29.25;39.20;100195.94;4983322;28;96909;-69
2023/07/12 05:37:12;;;;;;;13.70;7.78;;;;;;;29.33;38.86;100195.00;4973265;28;98929;-64
2023/07/12 05:39:40;;;;;;;11.60;7.78;;;;;;;29.29;39.25;100199.97;4988919;28;101087;-64
2023/07/12 05:42:07;;;;;;;14.57;8.27;;;;;;;29.32;39.28;100199.59;4987470;28;97517;-63
2023/07/12 05:44:34;;;;;;;20.17;8.23;;;;;;;29.25;39.47;100200.53;4978942;28;97285;-65
2023/07/12 05:47:00;;;;;;;12.48;7.85;;;;;;;29.31;39.35;100208.78;4986067;28;97646;-64
2023/07/12 05:49:27;;;;;;;21.05;7.70;;;;;;;29.01;40.23;100217.16;4988562;28;98730;-64
2023/07/12 05:51:53;;;;;;;11.90;8.40;;;;;;;29.04;40.54;100223.03;4988490;28;96736;-65
2023/07/12 05:54:20;;;;;;;17.83;8.35;;;;;;;29.07;40.37;100227.28;4980190;28;96933;-64
2023/07/12 05:56:47;;;;;;;19.05;8.10;;;;;;;29.15;40.40;100230.72;4987936;28;99356;-64
2023/07/12 05:59:15;;;;;;;17.73;9.70;;;;;;;29.25;40.08;100234.03;4981881;28;98821;-64
2023/07/12 06:01:41;;;;;;;18.75;8.02;;;;;;;29.30;40.57;100233.47;4986984;28;96874;-64
2023/07/12 06:04:10;;;;;;;14.07;8.25;;;;;;;29.23;40.33;100233.38;4981918;28;97119;-64
2023/07/12 06:06:40;;;;;;;14.10;8.48;;;;;;;28.99;41.35;100246.38;4988351;28;98020;-65
2023/07/12 06:09:07;;;;;;;10.68;7.70;;;;;;;29.13;41.00;100248.28;4980974;28;99599;-65
2023/07/12 06:11:34;;;;;;;16.23;8.63;;;;;;;29.25;41.03;100252.22;4988704;28;96891;-64
2023/07/12 06:14:02;;;;;;;11.25;8.10;;;;;;;29.23;41.10;100254.28;4988446;28;96817;-64
2023/07/12 06:16:28;;;;;;;14.75;8.07;;;;;;;29.27;41.19;100256.47;4988109;28;101332;-63
2023/07/12 06:18:55;;;;;;;10.48;7.93;;;;;;;29.25;41.39;100263.13;4987917;28;98980;-65
2023/07/12 06:21:21;;;;;;;14.50;7.88;;;;;;;29.36;41.52;100264.56;4979407;28;97180;-64
2023/07/12 06:23:50;;;;;;;11.13;7.40;;;;;;;29.34;41.61;100272.09;4988162;28;97936;-64
2023/07/12 06:26:16;;;;;;;16.92;8.05;;;;;;;29.01;42.59;100268.81;4979937;28;98152;-64
2023/07/12 06:28:43;;;;;;;10.10;8.25;;;;;;;29.22;42.46;100275.22;4988492;28;102119;-64
2023/07/12 06:31:10;;;;;;;13.30;8.25;;;;;;;29.54;41.95;100260.41;4987871;28;96878;-65
2023/07/12 06:33:38;;;;;;;14.13;7.18;;;;;;;29.88;41.38;100262.53;4988557;28;97052;-64
2023/07/12 06:36:05;;;;;;;8.52;7.13;;;;;;;30.21;40.93;100259.38;4979627;28;99351;-63
2023/07/12 06:38:31;;;;;;;13.27;7.55;;;;;;;30.66;40.14;100264.50;4988461;28;102383;-64
2023/07/12 06:40:58;;;;;;;8.88;7.43;;;;;;;31.12;39.32;100266.78;4987616;28;96736;-63
2023/07/12 06:43:25;;;;;;;17.90;7.03;;;;;;;31.31;39.58;100265.25;4987764;28;96805;-64
2023/07/12 06:45:52;;;;;;;16.15;7.53;;;;;;;31.21;39.33;100265.59;4988745;28;98512;-63
2023/07/12 06:48:20;;;;;;;11.00;6.82;;;;;;;31.50;39.14;100267.28;4989276;28;98752;-64
2023/07/12 06:50:46;;;;;;;6.95;6.22;;;;;;;31.87;38.99;100261.38;4988467;28;98364;-64
2023/07/12 06:53:12;;;;;;;9.27;6.25;;;;;;;32.07;38.44;100264.19;4981081;28;96808;-64
2023/07/12 06:55:43;;;;;;;14.20;6.65;;;;;;;32.10;38.46;100268.41;4986437;28;97864;-65
2023/07/12 06:58:09;;;;;;;10.07;6.28;;;;;;;32.43;38.21;100280.28;4987662;28;98324;-64
2023/07/12 07:00:36;;;;;;;14.25;6.07;;;;;;;32.41;38.05;100285.97;4991041;28;97270;-65
2023/07/12 07:03:02;;;;;;;8.73;5.35;;;;;;;31.87;39.22;100285.13;4991094;28;96753;-64
2023/07/12 07:05:32;;;;;;;8.18;5.13;;;;;;;31.89;39.10;100294.81;4991304;28;99134;-65
2023/07/12 07:07:58;;;;;;;15.10;6.13;;;;;;;31.67;39.70;100306.88;4982807;28;98899;-64
2023/07/12 07:10:25;;;;;;;8.73;5.57;;;;;;;31.52;40.02;100315.16;4986687;28;96874;-65
2023/07/12 07:12:51;;;;;;;13.75;5.80;;;;;;;30.90;40.74;100326.00;4979042;28;97168;-64
2023/07/12 07:15:18;;;;;;;14.15;5.32;;;;;;;30.65;41.79;100322.81;4991434;28;100064;-65
2023/07/12 07:17:45;;;;;;;12.23;5.82;;;;;;;30.35;41.94;100338.38;4983074;28;99073;-65
2023/07/12 07:20:14;;;;;;;13.85;5.75;;;;;;;30.05;42.87;100336.75;4988844;28;96810;-66
2023/07/12 07:22:42;;;;;;;14.90;5.95;;;;;;;30.14;42.92;100349.22;4991504;28;96992;-65
2023/07/12 07:25:09;;;;;;;13.80;5.80;;;;;;;30.33;42.76;100347.78;4990737;28;99330;-63
2023/07/12 07:27:36;;;;;;;9.18;5.38;;;;;;;30.65;42.22;100341.91;4991734;28;99287;-64
2023/07/12 07:30:02;;;;;;;10.05;5.80;;;;;;;30.30;42.79;100357.19;4991010;28;97422;-65
2023/07/12 07:32:29;;;;;;;15.00;6.60;;;;;;;30.06;43.28;100352.91;4991183;28;96750;-65
2023/07/12 07:34:55;;;;;;;11.68;7.07;;;;;;;29.87;43.90;100358.06;4985093;28;98231;-64
2023/07/12 07:37:22;;;;;;;16.30;6.90;;;;;;;30.15;43.04;100371.88;4990958;28;100202;-64
2023/07/12 07:39:50;;;;;;;12.38;6.40;;;;;;;29.84;42.75;100362.00;4990667;28;96873;-65
2023/07/12 07:42:16;;;;;;;11.65;6.88;;;;;;;29.79;42.88;100367.19;4990473;28;96766;-64
2023/07/12 07:44:43;;;;;;;9.93;6.65;;;;;;;29.65;43.28;100368.88;4985073;28;99376;-66
2023/07/12 07:47:09;;;;;;;12.20;7.03;;;;;;;29.76;42.40;100372.16;4990375;28;99182;-65
2023/07/12 07:49:35;;;;;;;12.82;6.80;;;;;;;29.79;41.53;100377.22;4991252;28;96786;-65
2023/07/12 07:52:03;;;;;;;10.57;6.57;;;;;;;30.14;40.96;100383.81;4992620;28;97180;-65
2023/07/12 07:54:29;;;;;;;11.93;7.35;;;;;;;30.07;40.74;100372.81;4987994;28;98994;-65
2023/07/12 07:56:57;;;;;;;13.18;7.13;;;;;;;30.51;40.31;100377.41;4985604;28;97674;-65
2023/07/12 07:59:23;;;;;;;10.23;7.20;;;;;;;31.10;38.60;100370.69;4990191;28;97215;-64
2023/07/12 08:01:50;;;;;;;9.45;6.50;;;;;;;30.94;38.00;100370.94;4984332;28;98053;-65
2023/07/12 08:04:17;;;;;;;9.75;5.25;;;;;;;30.47;38.30;100375.00;4980058;28;99105;-64
2023/07/12 08:06:43;;;;;;;8.70;5.30;;;;;;;30.28;38.66;100375.63;4986104;28;97858;-65
2023/07/12 08:09:09;;;;;;;11.02;5.13;;;;;;;30.32;37.99;100376.09;4987195;28;97137;-65
2023/07/12 08:11:36;;;;;;;8.23;5.05;;;;;;;29.88;39.54;100374.22;4981933;28;96874;-64
2023/07/12 08:14:03;;;;;;;9.32;5.80;;;;;;;30.05;39.31;100403.00;4986290;28;99007;-64
2023/07/12 08:16:33;;;;;;;7.13;4.75;;;;;;;30.65;37.59;100401.91;4987763;28;99525;-65
2023/07/12 08:18:59;;;;;;;7.30;4.70;;;;;;;30.39;38.05;100387.94;4985068;28;97094;-64
2023/07/12 08:21:26;;;;;;;7.10;4.80;;;;;;;30.75;37.31;100399.69;4983652;28;98200;-63
2023/07/12 08:23:52;;;;;;;6.72;4.45;;;;;;;31.12;36.64;100401.34;4980728;28;99405;-64
2023/07/12 08:26:19;;;;;;;8.52;4.30;;;;;;;31.04;37.44;100404.19;4985780;28;98936;-65
2023/07/12 08:28:46;;;;;;;8.63;4.47;;;;;;;31.06;36.99;100406.75;4987707;28;96905;-65
2023/07/12 08:31:14;;;;;;;4.20;3.80;;;;;;;31.31;36.65;100415.41;4987780;28;96911;-65
2023/07/12 08:33:44;;;;;;;5.55;3.30;;;;;;;31.31;36.31;100410.75;4976647;28;99325;-65
2023/07/12 08:36:10;;;;;;;4.60;3.10;;;;;;;31.39;36.07;100420.69;4984060;28;99482;-64
2023/07/12 08:38:37;;;;;;;4.88;3.10;;;;;;;31.44;35.71;100415.50;4978823;28;97582;-64
2023/07/12 08:41:12;;;;;;;4.60;3.10;;;;;;;30.94;36.82;100420.03;4982066;28;97968;-65
2023/07/12 08:43:38;;;;;;;7.38;3.10;;;;;;;30.78;36.94;100425.75;4981749;28;98898;-65
2023/07/12 08:46:11;;;;;;;3.92;3.40;;;;;;;30.72;37.33;100426.53;4984747;28;97629;-64
2023/07/12 08:48:39;;;;;;;11.18;3.53;;;;;;;31.01;36.86;100428.28;4980258;28;98196;-65
2023/07/12 08:51:12;;;;;;;8.40;2.97;;;;;;;30.92;37.45;100426.75;4986960;28;96969;-64
2023/07/12 08:53:41;;;;;;;4.70;2.92;;;;;;;31.30;36.85;100435.53;4987337;28;98810;-65
2023/07/12 08:56:14;;;;;;;10.38;4.30;;;;;;;31.27;36.75;100431.31;4985377;28;99108;-64
2023/07/12 08:58:44;;;;;;;5.28;3.00;;;;;;;31.48;36.60;100433.16;4988851;28;97458;-64
2023/07/12 09:01:14;;;;;;;10.02;2.95;;;;;;;31.30;36.96;100435.53;4987045;28;96963;-65
2023/07/12 09:03:42;;;;;;;7.88;3.10;;;;;;;30.98;37.75;100442.34;4984539;28;97859;-64
2023/07/12 09:06:12;;;;;;;5.07;2.42;;;;;;;30.96;37.49;100425.31;4988024;28;98078;-65
2023/07/12 09:08:41;;;;;;;5.20;3.30;;;;;;;31.33;37.38;100430.50;4988040;28;97819;-66
2023/07/12 09:11:15;;;;;;;4.25;2.97;;;;;;;31.30;36.70;100435.53;4985030;28;97618;-64
2023/07/12 09:13:42;;;;;;;4.53;2.42;;;;;;;30.62;37.99;100425.97;4986095;28;98259;-64
2023/07/12 09:16:23;;;;;;;5.90;2.58;;;;;;;30.63;38.52;100433.13;4986487;28;99432;-65
2023/07/12 09:18:53;;;;;;;3.60;2.70;;;;;;;30.70;38.70;100442.22;4987804;28;97451;-64
2023/07/12 09:21:21;;;;;;;5.60;2.80;;;;;;;30.66;38.55;100443.63;4981122;28;98774;-64
2023/07/12 09:23:48;;;;;;;5.32;2.80;;;;;;;30.63;38.74;100453.03;4984182;28;100356;-64
2023/07/12 09:26:23;;;;;;;3.80;2.33;;;;;;;31.04;38.31;100456.03;4987070;28;98846;-64
2023/07/12 09:28:49;;;;;;;3.40;2.67;;;;;;;31.24;38.15;100454.38;4974724;28;97117;-64
2023/07/12 09:31:22;;;;;;;6.75;2.92;;;;;;;31.55;37.39;100459.50;4986136;28;96962;-65
2023/07/12 09:33:54;;;;;;;3.67;2.67;;;;;;;31.62;36.85;100460.44;4982187;28;98940;-64
2023/07/12 09:36:20;;;;;;;5.07;2.38;;;;;;;31.45;37.56;100452.66;4984799;28;99191;-64
2023/07/12 09:38:47;;;;;;;3.13;2.42;;;;;;;31.33;37.90;100456.97;4978462;28;97915;-64
2023/07/12 09:41:19;;;;;;;2.40;2.00;;;;;;;31.39;37.40;100445.25;4986297;28;96751;-65
2023/07/12 09:43:48;;;;;;;2.65;1.80;;;;;;;31.58;37.05;100441.84;4981479;28;98850;-64
2023/07/12 09:46:27;;;;;;;5.43;2.17;;;;;;;31.45;37.20;100448.06;4985008;28;101554;-65
2023/07/12 09:49:00;;;;;;;6.15;2.30;;;;;;;30.81;38.31;100433.53;4980347;28;96781;-65
2023/07/12 09:51:30;;;;;;;4.47;2.45;;;;;;;31.04;38.81;100464.22;4985458;28;96986;-64
2023/07/12 09:54:00;;;;;;;6.68;2.42;;;;;;;31.77;37.26;100463.03;4985794;28;98997;-64
2023/07/12 09:56:37;;;;;;;2.78;2.30;;;;;;;31.72;37.57;100473.72;4986403;28;99289;-65
2023/07/12 09:59:11;;;;;;;7.13;2.58;;;;;;;31.55;37.84;100475.03;4986736;28;96889;-66
2023/07/12 10:01:52;;;;;;;7.32;3.00;;;;;;;31.44;38.16;100476.38;4986037;28;96856;-64
2023/07/12 10:04:34;;;;;;;4.63;2.53;;;;;;;31.52;37.76;100480.88;4981956;28;99097;-64
2023/07/12 10:07:03;;;;;;;4.85;2.30;;;;;;;31.08;38.83;100501.03;4979961;28;99067;-64
2023/07/12 10:09:34;;;;;;;6.55;2.28;;;;;;;31.14;38.81;100497.53;4986000;28;96814;-66
2023/07/12 10:12:08;;;;;;;6.70;2.25;;;;;;;31.42;38.07;100502.22;4982974;28;96870;-65
2023/07/12 10:14:38;;;;;;;2.70;1.63;;;;;;;31.20;38.64;100499.47;4972348;28;99724;-64
2023/07/12 10:17:05;;;;;;;1.63;1.30;;;;;;;31.41;37.70;100498.63;4984384;28;99005;-64
2023/07/12 10:19:37;;;;;;;4.38;1.60;;;;;;;31.38;37.84;100498.16;4981084;28;97219;-65
2023/07/12 10:22:13;;;;;;;2.80;1.50;;;;;;;31.57;37.55;100508.47;4981079;28;98005;-63
2023/07/12 10:24:43;;;;;;;3.10;1.67;;;;;;;31.90;36.91;100504.13;4975073;28;99011;-64
2023/07/12 10:27:17;;;;;;;6.03;1.83;;;;;;;31.32;37.64;100504.41;4983790;28;99054;-65
2023/07/12 10:29:48;;;;;;;3.55;1.27;;;;;;;31.17;37.45;100510.78;4978856;28;97203;-65
2023/07/12 10:32:21;;;;;;;8.43;1.55;;;;;;;31.16;37.57;100505.53;4982294;28;96776;-66
2023/07/12 10:34:56;;;;;;;2.67;1.77;;;;;;;31.65;36.70;100508.34;4977560;28;99342;-64
2023/07/12 10:37:30;;;;;;;3.80;1.55;;;;;;;31.70;36.54;100521.41;4987986;28;99187;-64
2023/07/12 10:39:56;;;;;;;3.78;1.42;;;;;;;31.39;36.96;100517.09;4990019;28;97252;-64
2023/07/12 10:42:29;;;;;;;2.72;1.83;;;;;;;31.32;36.68;100527.09;4986507;28;98292;-64
2023/07/12 10:44:59;;;;;;;2.97;1.83;;;;;;;30.92;37.91;100514.84;4988723;28;99126;-64
2023/07/12 10:47:31;;;;;;;4.05;2.00;;;;;;;31.09;37.89;100521.81;4986371;28;101243;-63
2023/07/12 10:50:02;;;;;;;1.95;1.48;;;;;;;30.89;38.34;100515.25;4987249;28;96886;-64
2023/07/12 10:52:30;;;;;;;9.40;1.90;;;;;;;31.26;37.45;100523.25;4988902;28;98284;-64
2023/07/12 10:55:21;;;;;;;17.50;2.38;;;;;;;31.01;37.03;100510.97;4986731;28;98965;-64
2023/07/12 10:57:49;;;;;;;5.40;2.00;;;;;;;31.22;35.91;100523.84;4988328;28;102555;-65
2023/07/12 11:00:26;;;;;;;1.70;1.50;;;;;;;31.27;36.51;100519.50;4982668;28;97407;-64
2023/07/12 11:03:18;;;;;;;4.72;1.58;;;;;;;30.84;36.36;100525.91;4982978;28;97172;-66
2023/07/12 11:05:57;;;;;;;2.42;1.63;;;;;;;30.91;36.15;100524.09;4984960;28;97849;-64
2023/07/12 11:08:40;;;;;;;5.28;1.40;;;;;;;31.09;35.60;100527.28;4989626;28;98008;-65
2023/07/12 11:11:28;;;;;;;1.40;1.27;;;;;;;31.40;34.62;100540.63;4984475;28;97133;-65
2023/07/12 11:14:12;;;;;;;1.75;1.23;;;;;;;31.47;34.35;100538.81;4984392;28;96976;-64
2023/07/12 11:16:45;;;;;;;2.60;1.25;;;;;;;31.96;33.35;100530.69;4986554;28;101870;-65
2023/07/12 11:19:35;;;;;;;2.00;1.15;;;;;;;31.96;32.97;100536.16;4988460;28;100873;-65
2023/07/12 11:22:11;;;;;;;2.47;1.08;;;;;;;31.90;32.52;100542.38;4984018;28;100738;-65
2023/07/12 11:24:39;;;;;;;4.07;1.30;;;;;;;32.04;32.17;100537.88;4982719;28;96845;-65
2023/07/12 11:27:24;;;;;;;1.35;1.10;;;;;;;31.86;31.26;100537.50;4985792;28;98857;-65
2023/07/12 11:29:54;;;;;;;4.60;1.20;;;;;;;31.57;31.72;100546.69;4984459;28;98960;-64